createdAt,value
2018-06-23T00:00:23.701Z,0.00
2018-06-23T00:01:23.693Z,0.00
2018-06-23T00:02:23.681Z,0.00
2018-06-23T00:03:23.672Z,0.00
2018-06-23T00:04:23.663Z,0.00
2018-06-23T00:05:23.654Z,0.00
2018-06-23T00:06:23.644Z,0.00
2018-06-23T00:07:23.635Z,0.00
2018-06-23T00:08:23.626Z,0.00
2018-06-23T00:09:23.616Z,0.00
2018-06-23T00:10:23.607Z,0.00
2018-06-23T00:11:23.597Z,0.00
2018-06-23T00:12:23.588Z,0.00
2018-06-23T00:13:23.578Z,0.00
2018-06-23T00:14:23.568Z,0.00
2018-06-23T00:15:23.559Z,0.00
2018-06-23T00:16:23.550Z,0.00
2018-06-23T00:17:23.541Z,0.00
2018-06-23T00:18:23.531Z,0.00
2018-06-23T00:19:23.522Z,0.00
2018-06-23T00:20:23.512Z,0.00
2018-06-23T00:21:23.503Z,0.00
2018-06-23T00:22:23.498Z,0.00
2018-06-23T00:23:23.483Z,0.00
2018-06-23T00:24:23.475Z,0.00
2018-06-23T00:25:23.465Z,0.00
2018-06-23T00:26:23.455Z,0.00
2018-06-23T00:27:23.450Z,0.00
2018-06-23T00:28:23.437Z,0.00
2018-06-23T00:29:23.428Z,0.00
2018-06-23T00:30:23.417Z,0.00
2018-06-23T00:31:23.407Z,0.00
2018-06-23T00:32:23.398Z,0.00
2018-06-23T00:33:23.388Z,0.00
2018-06-23T00:34:23.379Z,0.00
2018-06-23T00:35:23.371Z,0.00
2018-06-23T00:36:23.360Z,0.00
2018-06-23T00:37:23.351Z,0.00
2018-06-23T00:38:23.341Z,0.00
2018-06-23T00:39:23.335Z,0.00
2018-06-23T00:40:23.328Z,0.00
2018-06-23T00:41:23.312Z,0.00
2018-06-23T00:42:23.302Z,0.00
2018-06-23T00:43:23.297Z,0.00
2018-06-23T00:44:23.283Z,0.00
2018-06-23T00:45:23.275Z,0.00
2018-06-23T00:46:23.265Z,0.00
2018-06-23T00:47:23.255Z,0.00
2018-06-23T00:48:23.249Z,0.00
2018-06-23T00:49:23.240Z,0.00
2018-06-23T00:50:23.227Z,0.00
2018-06-23T00:51:23.217Z,0.00
2018-06-23T00:52:23.207Z,0.00
2018-06-23T00:53:23.198Z,0.00
2018-06-23T00:54:23.193Z,0.00
2018-06-23T00:55:23.179Z,0.00
2018-06-23T00:56:23.169Z,0.00
2018-06-23T00:57:23.160Z,0.00
2018-06-23T00:58:23.150Z,0.00
2018-06-23T00:59:23.144Z,0.00
2018-06-23T01:00:23.131Z,0.00
2018-06-23T01:01:23.122Z,0.00
2018-06-23T01:02:23.116Z,0.00
2018-06-23T01:03:23.103Z,0.00
2018-06-23T01:04:23.093Z,0.00
2018-06-23T01:05:23.083Z,0.00
2018-06-23T01:06:23.073Z,0.00
2018-06-23T01:07:23.065Z,0.00
2018-06-23T01:08:23.054Z,0.00
2018-06-23T01:09:23.046Z,0.00
2018-06-23T01:10:23.035Z,0.00
2018-06-23T01:11:23.026Z,0.00
2018-06-23T01:12:23.016Z,0.00
2018-06-23T01:13:23.007Z,0.00
2018-06-23T01:14:22.998Z,0.00
2018-06-23T01:15:22.987Z,0.00
2018-06-23T01:16:22.978Z,0.00
2018-06-23T01:17:22.970Z,0.00
2018-06-23T01:18:22.958Z,0.00
2018-06-23T01:19:22.948Z,0.00
2018-06-23T01:20:22.942Z,0.00
2018-06-23T01:21:22.929Z,0.00
2018-06-23T01:22:22.919Z,0.00
2018-06-23T01:23:22.909Z,0.00
2018-06-23T01:24:22.900Z,0.00
2018-06-23T01:25:22.891Z,0.00
2018-06-23T01:26:22.881Z,0.00
2018-06-23T01:27:22.871Z,0.00
2018-06-23T01:28:22.862Z,0.00
2018-06-23T01:29:22.857Z,0.00
2018-06-23T01:30:22.842Z,0.00
2018-06-23T01:31:22.832Z,0.00
2018-06-23T01:32:22.822Z,0.00
2018-06-23T01:33:22.818Z,0.00
2018-06-23T01:34:22.803Z,0.00
2018-06-23T01:35:22.793Z,0.00
2018-06-23T01:36:22.784Z,0.00
2018-06-23T01:37:22.775Z,0.00
2018-06-23T01:38:22.764Z,0.00
2018-06-23T01:39:22.754Z,0.00
2018-06-23T01:40:22.746Z,0.00
2018-06-23T01:41:22.736Z,0.00
2018-06-23T01:42:22.726Z,0.00
2018-06-23T01:43:22.716Z,0.00
2018-06-23T01:44:22.706Z,0.00
2018-06-23T01:45:22.697Z,0.00
2018-06-23T01:46:22.687Z,0.00
2018-06-23T01:47:22.677Z,0.00
2018-06-23T01:48:22.667Z,0.00
2018-06-23T01:49:22.658Z,0.00
2018-06-23T01:50:22.647Z,0.00
2018-06-23T01:51:22.638Z,0.00
2018-06-23T01:52:22.630Z,0.00
2018-06-23T01:53:22.619Z,0.00
2018-06-23T01:54:22.608Z,0.00
2018-06-23T01:55:22.599Z,0.00
2018-06-23T01:56:22.595Z,0.00
2018-06-23T01:57:22.583Z,0.00
2018-06-23T01:58:22.569Z,0.00
2018-06-23T01:59:22.560Z,0.00
2018-06-23T02:00:22.555Z,0.00
2018-06-23T02:01:22.541Z,0.00
2018-06-23T02:02:22.531Z,0.00
2018-06-23T02:03:22.521Z,0.00
2018-06-23T02:04:22.511Z,0.00
2018-06-23T02:05:22.502Z,0.00
2018-06-23T02:06:22.491Z,0.00
2018-06-23T02:07:22.481Z,0.00
2018-06-23T02:08:22.472Z,0.00
2018-06-23T02:09:22.465Z,0.00
2018-06-23T02:10:22.458Z,0.00
2018-06-23T02:11:22.442Z,0.00
2018-06-23T02:12:22.433Z,0.00
2018-06-23T02:13:22.423Z,0.00
2018-06-23T02:14:22.414Z,0.00
2018-06-23T02:15:22.404Z,0.00
2018-06-23T02:16:22.394Z,0.00
2018-06-23T02:17:22.384Z,0.00
2018-06-23T02:18:22.375Z,0.00
2018-06-23T02:19:22.364Z,0.00
2018-06-23T02:20:22.355Z,0.00
2018-06-23T02:21:22.346Z,0.00
2018-06-23T02:22:22.336Z,0.00
2018-06-23T02:23:22.330Z,0.00
2018-06-23T02:24:22.317Z,0.00
2018-06-23T02:25:22.306Z,0.00
2018-06-23T02:26:22.296Z,0.00
2018-06-23T02:27:22.289Z,0.00
2018-06-23T02:28:22.277Z,0.00
2018-06-23T02:29:22.267Z,0.00
2018-06-23T02:30:22.258Z,0.00
2018-06-23T02:31:22.247Z,0.00
2018-06-23T02:32:22.238Z,0.00
2018-06-23T02:33:22.228Z,0.00
2018-06-23T02:34:22.218Z,0.00
2018-06-23T02:35:22.210Z,0.00
2018-06-23T02:36:22.202Z,0.00
2018-06-23T02:37:22.195Z,0.00
2018-06-23T02:38:22.181Z,0.00
2018-06-23T02:39:22.169Z,0.00
2018-06-23T02:40:22.159Z,0.00
2018-06-23T02:41:22.151Z,0.00
2018-06-23T02:42:22.142Z,0.00
2018-06-23T02:43:22.130Z,0.00
2018-06-23T02:44:22.121Z,0.00
2018-06-23T02:45:22.111Z,0.00
2018-06-23T02:46:22.101Z,0.00
2018-06-23T02:47:22.093Z,0.00
2018-06-23T02:48:22.085Z,0.00
2018-06-23T02:49:22.071Z,0.00
2018-06-23T02:50:22.080Z,0.00
2018-06-23T02:51:22.051Z,0.00
2018-06-23T02:52:22.045Z,0.00
2018-06-23T02:53:22.032Z,0.00
2018-06-23T02:54:22.023Z,0.00
2018-06-23T02:55:22.012Z,0.00
2018-06-23T02:56:22.009Z,0.00
2018-06-23T02:57:21.993Z,0.00
2018-06-23T02:58:21.983Z,0.00
2018-06-23T02:59:21.973Z,0.00
2018-06-23T03:00:21.963Z,0.00
2018-06-23T03:01:21.954Z,0.00
2018-06-23T03:02:21.943Z,0.00
2018-06-23T03:03:21.938Z,0.00
2018-06-23T03:04:21.927Z,0.00
2018-06-23T03:05:21.914Z,0.00
2018-06-23T03:06:21.904Z,0.00
2018-06-23T03:07:21.899Z,0.00
2018-06-23T03:08:21.884Z,0.00
2018-06-23T03:09:21.875Z,0.00
2018-06-23T03:10:21.864Z,0.00
2018-06-23T03:11:21.855Z,0.00
2018-06-23T03:12:21.848Z,0.00
2018-06-23T03:13:21.836Z,0.00
2018-06-23T03:14:21.825Z,0.00
2018-06-23T03:15:21.815Z,5.63
2018-06-23T03:16:21.809Z,5.63
2018-06-23T03:17:21.797Z,5.63
2018-06-23T03:18:21.786Z,5.63
2018-06-23T03:19:21.776Z,5.63
2018-06-23T03:20:21.767Z,5.63
2018-06-23T03:21:21.759Z,5.63
2018-06-23T03:22:21.750Z,5.63
2018-06-23T03:23:21.740Z,5.63
2018-06-23T03:24:21.735Z,11.25
2018-06-23T03:25:21.718Z,11.25
2018-06-23T03:26:21.707Z,11.25
2018-06-23T03:27:21.900Z,11.25
2018-06-23T03:28:21.687Z,11.25
2018-06-23T03:29:21.680Z,11.25
2018-06-23T03:30:21.671Z,11.25
2018-06-23T03:31:21.673Z,11.25
2018-06-23T03:32:21.653Z,16.88
2018-06-23T03:33:21.642Z,16.88
2018-06-23T03:34:21.630Z,16.88
2018-06-23T03:35:21.619Z,16.88
2018-06-23T03:36:21.609Z,16.88
2018-06-23T03:37:21.600Z,16.88
2018-06-23T03:38:21.592Z,22.50
2018-06-23T03:39:21.582Z,22.50
2018-06-23T03:40:21.572Z,22.50
2018-06-23T03:41:21.561Z,22.50
2018-06-23T03:42:21.550Z,22.50
2018-06-23T03:43:21.544Z,28.13
2018-06-23T03:44:21.735Z,28.13
2018-06-23T03:45:21.525Z,28.13
2018-06-23T03:46:21.510Z,28.13
2018-06-23T03:47:21.501Z,33.75
2018-06-23T03:48:21.496Z,33.75
2018-06-23T03:49:21.485Z,33.75
2018-06-23T03:50:21.470Z,33.75
2018-06-23T03:51:21.461Z,39.38
2018-06-23T03:52:21.452Z,39.38
2018-06-23T03:53:21.442Z,39.38
2018-06-23T03:54:21.431Z,39.38
2018-06-23T03:55:21.422Z,45.00
2018-06-23T03:56:21.416Z,45.00
2018-06-23T03:57:21.404Z,45.00
2018-06-23T03:58:21.395Z,45.00
2018-06-23T03:59:21.382Z,50.63
2018-06-23T04:00:21.372Z,50.63
2018-06-23T04:01:21.363Z,56.25
2018-06-23T04:02:21.352Z,56.25
2018-06-23T04:03:21.346Z,56.25
2018-06-23T04:04:21.334Z,61.88
2018-06-23T04:05:21.323Z,61.88
2018-06-23T04:07:21.303Z,67.50
2018-06-23T04:08:21.293Z,67.50
2018-06-23T04:09:21.283Z,67.50
2018-06-23T04:10:21.273Z,67.50
2018-06-23T04:11:21.319Z,73.13
2018-06-23T04:12:21.254Z,73.13
2018-06-23T04:13:21.244Z,73.13
2018-06-23T04:14:21.233Z,78.75
2018-06-23T04:15:21.227Z,78.75
2018-06-23T04:16:21.214Z,78.75
2018-06-23T04:17:21.205Z,78.75
2018-06-23T04:18:21.205Z,84.38
2018-06-23T04:19:21.184Z,84.38
2018-06-23T04:20:21.175Z,84.38
2018-06-23T04:21:21.165Z,90.00
2018-06-23T04:22:21.159Z,84.38
2018-06-23T04:23:21.147Z,84.38
2018-06-23T04:24:21.136Z,95.63
2018-06-23T04:25:21.127Z,106.88
2018-06-23T04:26:21.116Z,112.50
2018-06-23T04:27:21.106Z,118.13
2018-06-23T04:28:21.097Z,140.63
2018-06-23T04:29:21.200Z,146.25
2018-06-23T04:30:21.077Z,135.00
2018-06-23T04:31:21.068Z,118.13
2018-06-23T04:32:21.059Z,112.50
2018-06-23T04:33:21.049Z,106.88
2018-06-23T04:34:21.039Z,106.88
2018-06-23T04:35:21.037Z,112.50
2018-06-23T04:37:21.015Z,112.50
2018-06-23T04:38:21.006Z,112.50
2018-06-23T04:39:20.992Z,112.50
2018-06-23T04:40:20.982Z,118.13
2018-06-23T04:41:20.973Z,118.13
2018-06-23T04:42:20.963Z,118.13
2018-06-23T04:43:20.954Z,118.13
2018-06-23T04:44:20.944Z,123.75
2018-06-23T04:45:20.935Z,123.75
2018-06-23T04:46:20.928Z,123.75
2018-06-23T04:47:20.916Z,129.38
2018-06-23T04:48:20.906Z,129.38
2018-06-23T04:49:20.897Z,129.38
2018-06-23T04:50:20.887Z,129.38
2018-06-23T04:51:20.878Z,135.00
2018-06-23T04:52:20.869Z,135.00
2018-06-23T04:53:21.068Z,135.00
2018-06-23T04:54:20.850Z,135.00
2018-06-23T04:55:20.841Z,140.63
2018-06-23T04:56:20.838Z,140.63
2018-06-23T04:57:20.826Z,140.63
2018-06-23T04:58:20.812Z,146.25
2018-06-23T04:59:20.803Z,146.25
2018-06-23T05:00:20.816Z,146.25
2018-06-23T05:01:20.785Z,146.25
2018-06-23T05:02:20.775Z,146.25
2018-06-23T05:03:20.766Z,146.25
2018-06-23T05:04:20.761Z,151.88
2018-06-23T05:05:20.748Z,151.88
2018-06-23T05:06:20.742Z,157.50
2018-06-23T05:08:20.924Z,157.50
2018-06-23T05:09:20.719Z,163.13
2018-06-23T05:10:20.701Z,168.75
2018-06-23T05:11:20.691Z,168.75
2018-06-23T05:12:20.686Z,168.75
2018-06-23T05:13:20.674Z,180.00
2018-06-23T05:14:20.664Z,185.63
2018-06-23T05:15:20.857Z,185.63
2018-06-23T05:16:20.646Z,191.25
2018-06-23T05:17:20.637Z,202.50
2018-06-23T05:18:20.633Z,225.00
2018-06-23T05:19:20.622Z,236.25
2018-06-23T05:20:20.684Z,241.88
2018-06-23T05:21:20.602Z,264.38
2018-06-23T05:22:20.591Z,286.88
2018-06-23T05:23:20.582Z,298.13
2018-06-23T05:24:20.577Z,298.13
2018-06-23T05:25:20.565Z,298.13
2018-06-23T05:26:20.556Z,298.13
2018-06-23T05:27:20.549Z,292.50
2018-06-23T05:28:20.538Z,275.63
2018-06-23T05:29:20.531Z,253.13
2018-06-23T05:30:20.527Z,230.63
2018-06-23T05:31:20.512Z,219.38
2018-06-23T05:32:20.508Z,219.38
2018-06-23T05:33:20.496Z,213.75
2018-06-23T05:34:20.487Z,208.13
2018-06-23T05:35:20.477Z,208.13
2018-06-23T05:36:20.469Z,202.50
2018-06-23T05:37:20.461Z,208.13
2018-06-23T05:38:20.451Z,230.63
2018-06-23T05:39:20.645Z,236.25
2018-06-23T05:40:20.435Z,275.63
2018-06-23T05:41:20.430Z,303.75
2018-06-23T05:42:20.419Z,315.00
2018-06-23T05:43:20.413Z,331.88
2018-06-23T05:44:20.400Z,371.25
2018-06-23T05:45:20.395Z,393.75
2018-06-23T05:46:20.385Z,393.75
2018-06-23T05:47:20.374Z,393.75
2018-06-23T05:48:20.366Z,416.25
2018-06-23T05:49:20.358Z,427.50
2018-06-23T05:50:20.357Z,433.13
2018-06-23T05:51:20.385Z,433.13
2018-06-23T05:52:20.339Z,444.38
2018-06-23T05:53:20.329Z,450.00
2018-06-23T05:54:20.316Z,461.25
2018-06-23T05:55:20.308Z,466.88
2018-06-23T05:56:20.301Z,478.13
2018-06-23T05:57:20.293Z,466.88
2018-06-23T05:58:20.289Z,450.00
2018-06-23T05:59:20.277Z,450.00
2018-06-23T06:00:20.273Z,450.00
2018-06-23T06:01:20.266Z,433.13
2018-06-23T06:02:20.260Z,421.88
2018-06-23T06:03:20.245Z,438.75
2018-06-23T06:04:20.238Z,438.75
2018-06-23T06:05:20.231Z,444.38
2018-06-23T06:06:20.224Z,450.00
2018-06-23T06:07:20.218Z,433.13
2018-06-23T06:08:20.206Z,399.38
2018-06-23T06:09:20.404Z,365.63
2018-06-23T06:10:20.191Z,320.63
2018-06-23T06:11:20.189Z,275.63
2018-06-23T06:12:20.177Z,253.13
2018-06-23T06:13:20.175Z,253.13
2018-06-23T06:14:20.172Z,270.00
2018-06-23T06:15:20.157Z,298.13
2018-06-23T06:16:20.146Z,320.63
2018-06-23T06:17:20.139Z,309.38
2018-06-23T06:18:20.136Z,303.75
2018-06-23T06:19:20.133Z,309.38
2018-06-23T06:20:20.115Z,337.50
2018-06-23T06:21:20.110Z,343.13
2018-06-23T06:22:20.100Z,326.25
2018-06-23T06:23:20.092Z,337.50
2018-06-23T06:24:20.094Z,309.38
2018-06-23T06:25:20.078Z,303.75
2018-06-23T06:26:20.070Z,309.38
2018-06-23T06:27:20.065Z,348.75
2018-06-23T06:28:20.055Z,382.50
2018-06-23T06:29:20.051Z,382.50
2018-06-23T06:30:20.039Z,371.25
2018-06-23T06:31:20.032Z,382.50
2018-06-23T06:32:20.026Z,399.38
2018-06-23T06:33:20.020Z,421.88
2018-06-23T06:34:20.009Z,427.50
2018-06-23T06:35:20.003Z,444.38
2018-06-23T06:36:19.995Z,466.88
2018-06-23T06:37:19.988Z,489.38
2018-06-23T06:38:19.980Z,461.25
2018-06-23T06:39:19.973Z,444.38
2018-06-23T06:40:19.966Z,450.00
2018-06-23T06:41:19.961Z,450.00
2018-06-23T06:42:19.957Z,455.63
2018-06-23T06:43:19.947Z,466.88
2018-06-23T06:44:19.936Z,483.75
2018-06-23T06:45:19.930Z,534.38
2018-06-23T06:46:19.926Z,613.13
2018-06-23T06:47:19.917Z,714.38
2018-06-23T06:48:19.908Z,781.88
2018-06-23T06:49:19.910Z,787.50
2018-06-23T06:50:19.896Z,770.63
2018-06-23T06:51:19.887Z,731.25
2018-06-23T06:52:19.881Z,703.13
2018-06-23T06:53:19.877Z,703.13
2018-06-23T06:54:19.867Z,720.00
2018-06-23T06:55:19.860Z,753.75
2018-06-23T06:56:19.858Z,770.63
2018-06-23T06:57:19.848Z,697.50
2018-06-23T06:58:19.845Z,624.38
2018-06-23T06:59:19.835Z,540.00
2018-06-23T07:00:19.829Z,495.00
2018-06-23T07:01:19.823Z,523.13
2018-06-23T07:02:19.820Z,624.38
2018-06-23T07:03:19.816Z,562.50
2018-06-23T07:04:19.807Z,573.75
2018-06-23T07:05:19.804Z,669.38
2018-06-23T07:06:19.795Z,725.63
2018-06-23T07:07:19.788Z,703.13
2018-06-23T07:08:19.779Z,646.88
2018-06-23T07:09:19.773Z,658.13
2018-06-23T07:10:19.770Z,703.13
2018-06-23T07:11:19.764Z,607.50
2018-06-23T07:12:19.759Z,528.75
2018-06-23T07:13:19.951Z,489.38
2018-06-23T07:14:19.741Z,506.25
2018-06-23T07:15:19.736Z,635.63
2018-06-23T07:16:19.730Z,663.75
2018-06-23T07:17:19.724Z,624.38
2018-06-23T07:18:19.717Z,556.88
2018-06-23T07:19:19.713Z,551.25
2018-06-23T07:20:19.705Z,607.50
2018-06-23T07:21:19.702Z,641.25
2018-06-23T07:22:19.693Z,652.50
2018-06-23T07:23:19.687Z,686.25
2018-06-23T07:24:19.681Z,703.13
2018-06-23T07:25:19.677Z,714.38
2018-06-23T07:26:19.668Z,714.38
2018-06-23T07:27:19.864Z,731.25
2018-06-23T07:28:19.862Z,787.50
2018-06-23T07:29:19.651Z,759.38
2018-06-23T07:30:19.644Z,714.38
2018-06-23T07:31:19.644Z,759.38
2018-06-23T07:32:19.633Z,776.25
2018-06-23T07:33:19.627Z,832.50
2018-06-23T07:34:19.693Z,843.75
2018-06-23T07:35:19.847Z,838.13
2018-06-23T07:36:19.609Z,1366.88
2018-06-23T07:37:19.604Z,838.13
2018-06-23T07:38:19.599Z,669.38
2018-06-23T07:39:19.593Z,691.88
2018-06-23T07:40:19.589Z,770.63
2018-06-23T07:41:19.583Z,877.50
2018-06-23T07:42:19.582Z,888.75
2018-06-23T07:45:19.561Z,849.38
2018-06-23T07:46:19.555Z,961.88
2018-06-23T07:47:19.555Z,978.75
2018-06-23T07:48:19.545Z,900.00
2018-06-23T07:49:19.540Z,1012.50
2018-06-23T07:50:19.534Z,1012.50
2018-06-23T07:51:19.529Z,1029.38
2018-06-23T07:52:19.535Z,3138.75
2018-06-23T07:53:19.521Z,2666.25
2018-06-23T07:54:19.514Z,1113.75
2018-06-23T07:55:19.510Z,1389.38
2018-06-23T07:56:19.671Z,1906.88
2018-06-23T07:57:19.503Z,1355.63
2018-06-23T07:58:19.498Z,1299.38
2018-06-23T07:59:19.498Z,1715.63
2018-06-23T08:00:19.492Z,2272.50
2018-06-23T08:01:19.489Z,1805.63
2018-06-23T08:02:19.490Z,1726.88
2018-06-23T08:04:19.481Z,1260.00
2018-06-23T08:05:19.479Z,1153.13
2018-06-23T08:06:19.476Z,1147.50
2018-06-23T08:07:19.473Z,843.75
2018-06-23T08:08:19.478Z,680.63
2018-06-23T08:09:19.468Z,545.63
2018-06-23T08:10:19.469Z,478.13
2018-06-23T08:11:19.467Z,461.25
2018-06-23T08:12:19.463Z,528.75
2018-06-23T08:13:19.456Z,540.00
2018-06-23T08:14:19.451Z,455.63
2018-06-23T08:15:19.447Z,421.88
2018-06-23T08:16:19.447Z,416.25
2018-06-23T08:17:19.441Z,444.38
2018-06-23T08:18:19.641Z,438.75
2018-06-23T08:19:19.431Z,416.25
2018-06-23T08:20:19.427Z,444.38
2018-06-23T08:21:19.422Z,455.63
2018-06-23T08:22:19.416Z,472.50
2018-06-23T08:23:19.412Z,466.88
2018-06-23T08:24:19.408Z,500.63
2018-06-23T08:25:19.404Z,444.38
2018-06-23T08:26:19.610Z,331.88
2018-06-23T08:27:19.403Z,247.50
2018-06-23T08:28:19.391Z,202.50
2018-06-23T08:29:19.380Z,185.63
2018-06-23T08:30:19.374Z,202.50
2018-06-23T08:31:19.373Z,219.38
2018-06-23T08:32:19.362Z,219.38
2018-06-23T08:33:19.357Z,258.75
2018-06-23T08:34:19.351Z,292.50
2018-06-23T08:35:19.343Z,286.88
2018-06-23T08:36:19.338Z,388.13
2018-06-23T08:37:19.332Z,618.75
2018-06-23T08:38:19.325Z,787.50
2018-06-23T08:39:19.327Z,877.50
2018-06-23T08:40:19.320Z,888.75
2018-06-23T08:41:19.309Z,843.75
2018-06-23T08:42:19.302Z,916.88
2018-06-23T08:43:19.298Z,1012.50
2018-06-23T08:44:19.294Z,1012.50
2018-06-23T08:45:19.288Z,1018.13
2018-06-23T08:46:19.278Z,1096.88
2018-06-23T08:47:19.275Z,1276.88
2018-06-23T08:48:19.267Z,1186.88
2018-06-23T08:49:19.264Z,1597.50
2018-06-23T08:50:19.257Z,1783.13
2018-06-23T08:51:19.252Z,1552.50
2018-06-23T08:52:19.248Z,2559.38
2018-06-23T08:53:19.251Z,1327.50
2018-06-23T08:54:19.244Z,1653.75
2018-06-23T08:55:19.240Z,1445.63
2018-06-23T08:56:19.435Z,2120.63
2018-06-23T08:57:19.230Z,3138.75
2018-06-23T08:58:19.226Z,3363.75
2018-06-23T08:59:19.224Z,2323.13
2018-06-23T09:00:19.224Z,2790.00
2018-06-23T09:01:19.232Z,1996.88
2018-06-23T09:02:19.423Z,1918.13
2018-06-23T09:03:19.221Z,3262.50
2018-06-23T09:04:19.429Z,1485.00
2018-06-23T09:05:19.251Z,3656.25
2018-06-23T09:06:19.221Z,1951.88
2018-06-23T09:07:19.224Z,4106.25
2018-06-23T09:08:19.233Z,2210.63
2018-06-23T09:09:19.226Z,1648.13
2018-06-23T09:10:19.229Z,2030.63
2018-06-23T09:11:19.228Z,4308.75
2018-06-23T09:12:19.231Z,1158.75
2018-06-23T09:13:19.234Z,838.13
2018-06-23T09:14:19.441Z,843.75
2018-06-23T09:15:19.236Z,928.13
2018-06-23T09:16:19.642Z,911.25
2018-06-23T09:17:19.242Z,950.63
2018-06-23T09:18:19.240Z,1423.13
2018-06-23T09:19:19.239Z,1226.25
2018-06-23T09:20:19.241Z,1035.00
2018-06-23T09:21:19.244Z,4151.25
2018-06-23T09:22:19.240Z,4224.38
2018-06-23T09:23:19.239Z,4235.63
2018-06-23T09:24:19.240Z,4336.88
2018-06-23T09:25:19.243Z,4561.88
2018-06-23T09:26:19.244Z,2143.13
2018-06-23T09:27:19.248Z,1569.38
2018-06-23T09:28:19.251Z,1383.75
2018-06-23T09:29:19.257Z,1485.00
2018-06-23T09:30:19.459Z,2655.00
2018-06-23T09:31:19.266Z,2351.25
2018-06-23T09:32:19.263Z,2008.13
2018-06-23T09:33:19.267Z,2559.38
2018-06-23T09:34:19.273Z,1901.25
2018-06-23T09:35:19.271Z,1749.38
2018-06-23T09:36:19.276Z,3616.88
2018-06-23T09:37:19.277Z,2430.00
2018-06-23T09:38:19.279Z,1642.50
2018-06-23T09:39:19.285Z,1580.63
2018-06-23T09:40:19.285Z,1681.88
2018-06-23T09:41:19.287Z,1473.75
2018-06-23T09:42:19.289Z,1591.88
2018-06-23T09:43:19.291Z,1856.25
2018-06-23T09:44:19.296Z,2761.88
2018-06-23T09:45:19.502Z,2379.38
2018-06-23T09:46:19.297Z,3026.25
2018-06-23T09:47:19.300Z,3566.25
2018-06-23T09:48:19.304Z,2379.38
2018-06-23T09:49:19.307Z,1473.75
2018-06-23T09:50:19.308Z,1029.38
2018-06-23T09:51:19.318Z,821.25
2018-06-23T09:52:19.316Z,815.63
2018-06-23T09:53:19.319Z,916.88
2018-06-23T09:54:19.321Z,956.25
2018-06-23T09:55:19.330Z,973.13
2018-06-23T09:56:19.326Z,1051.88
2018-06-23T09:57:19.331Z,1147.50
2018-06-23T09:58:19.335Z,1333.13
2018-06-23T09:59:19.327Z,1423.13
2018-06-23T10:00:19.329Z,1631.25
2018-06-23T10:01:19.329Z,1535.63
2018-06-23T10:02:19.328Z,1158.75
2018-06-23T10:03:19.377Z,967.50
2018-06-23T10:04:19.330Z,956.25
2018-06-23T10:05:19.334Z,894.38
2018-06-23T10:06:19.329Z,871.88
2018-06-23T10:07:19.364Z,1181.25
2018-06-23T10:08:19.335Z,1501.88
2018-06-23T10:09:19.336Z,1310.63
2018-06-23T10:10:19.328Z,1490.63
2018-06-23T10:11:19.333Z,1423.13
2018-06-23T10:12:19.328Z,1333.13
2018-06-23T10:13:19.329Z,1220.63
2018-06-23T10:15:19.361Z,900.00
2018-06-23T10:16:19.327Z,922.50
2018-06-23T10:17:19.329Z,1006.88
2018-06-23T10:18:19.324Z,1057.50
2018-06-23T10:19:19.324Z,1018.13
2018-06-23T10:20:19.323Z,1012.50
2018-06-23T10:21:19.322Z,990.00
2018-06-23T10:22:19.324Z,978.75
2018-06-23T10:23:19.318Z,961.88
2018-06-23T10:24:19.520Z,945.00
2018-06-23T10:25:19.321Z,855.00
2018-06-23T10:26:19.319Z,748.13
2018-06-23T10:27:19.376Z,658.13
2018-06-23T10:28:19.311Z,585.00
2018-06-23T10:29:19.313Z,534.38
2018-06-23T10:30:19.508Z,489.38
2018-06-23T10:31:19.309Z,444.38
2018-06-23T10:32:19.307Z,438.75
2018-06-23T10:33:19.304Z,438.75
2018-06-23T10:34:19.303Z,506.25
2018-06-23T10:35:19.497Z,562.50
2018-06-23T10:36:19.293Z,652.50
2018-06-23T10:37:19.290Z,765.00
2018-06-23T10:38:19.324Z,781.88
2018-06-23T10:39:19.286Z,759.38
2018-06-23T10:40:19.280Z,826.88
2018-06-23T10:41:19.277Z,1040.63
2018-06-23T10:42:19.276Z,1147.50
2018-06-23T10:43:19.275Z,1158.75
2018-06-23T10:44:19.267Z,1170.00
2018-06-23T10:45:19.265Z,1125.00
2018-06-23T10:46:19.323Z,1029.38
2018-06-23T10:47:19.262Z,950.63
2018-06-23T10:48:19.258Z,871.88
2018-06-23T10:49:19.254Z,787.50
2018-06-23T10:50:19.250Z,675.00
2018-06-23T10:51:19.252Z,641.25
2018-06-23T10:52:19.247Z,652.50
2018-06-23T10:53:19.245Z,596.25
2018-06-23T10:54:19.237Z,511.88
2018-06-23T10:55:19.234Z,483.75
2018-06-23T10:56:19.231Z,466.88
2018-06-23T10:57:19.228Z,410.63
2018-06-23T10:58:19.230Z,399.38
2018-06-23T10:59:19.227Z,444.38
2018-06-23T11:00:19.217Z,478.13
2018-06-23T11:01:19.214Z,489.38
2018-06-23T11:02:19.212Z,478.13
2018-06-23T11:03:19.408Z,438.75
2018-06-23T11:04:19.202Z,433.13
2018-06-23T11:05:19.202Z,472.50
2018-06-23T11:06:19.194Z,534.38
2018-06-23T11:07:19.190Z,613.13
2018-06-23T11:08:19.187Z,556.88
2018-06-23T11:09:19.184Z,506.25
2018-06-23T11:10:19.380Z,438.75
2018-06-23T11:11:19.174Z,421.88
2018-06-23T11:12:19.171Z,444.38
2018-06-23T11:13:19.170Z,523.13
2018-06-23T11:14:19.170Z,540.00
2018-06-23T11:15:19.158Z,534.38
2018-06-23T11:16:19.159Z,556.88
2018-06-23T11:17:19.155Z,545.63
2018-06-23T11:18:19.146Z,500.63
2018-06-23T11:19:19.142Z,466.88
2018-06-23T11:20:19.140Z,438.75
2018-06-23T11:21:19.138Z,427.50
2018-06-23T11:22:19.131Z,438.75
2018-06-23T11:23:19.125Z,472.50
2018-06-23T11:24:19.180Z,495.00
2018-06-23T11:25:19.119Z,483.75
2018-06-23T11:26:19.122Z,466.88
2018-06-23T11:27:19.110Z,461.25
2018-06-23T11:28:19.106Z,450.00
2018-06-23T11:29:19.100Z,483.75
2018-06-23T11:30:19.095Z,489.38
2018-06-23T11:31:19.090Z,495.00
2018-06-23T11:32:19.096Z,483.75
2018-06-23T11:33:19.088Z,472.50
2018-06-23T11:34:19.076Z,489.38
2018-06-23T11:35:19.072Z,472.50
2018-06-23T11:36:19.068Z,416.25
2018-06-23T11:37:19.063Z,365.63
2018-06-23T11:38:19.061Z,376.88
2018-06-23T11:39:19.055Z,433.13
2018-06-23T11:40:19.049Z,427.50
2018-06-23T11:41:19.071Z,421.88
2018-06-23T11:42:19.039Z,466.88
2018-06-23T11:43:19.034Z,528.75
2018-06-23T11:44:19.034Z,540.00
2018-06-23T11:45:19.025Z,579.38
2018-06-23T11:46:19.022Z,618.75
2018-06-23T11:47:19.027Z,624.38
2018-06-23T11:48:19.010Z,596.25
2018-06-23T11:49:19.008Z,528.75
2018-06-23T11:50:19.000Z,466.88
2018-06-23T11:51:19.003Z,478.13
2018-06-23T11:52:19.288Z,506.25
2018-06-23T11:53:18.987Z,540.00
2018-06-23T11:54:18.984Z,551.25
2018-06-23T11:55:18.978Z,495.00
2018-06-23T11:56:18.975Z,478.13
2018-06-23T11:57:18.970Z,478.13
2018-06-23T11:58:18.965Z,489.38
2018-06-23T11:59:18.960Z,478.13
2018-06-23T12:00:18.959Z,438.75
2018-06-23T12:01:18.952Z,393.75
2018-06-23T12:02:18.947Z,371.25
2018-06-23T12:03:18.944Z,365.63
2018-06-23T12:04:18.939Z,348.75
2018-06-23T12:05:18.942Z,326.25
2018-06-23T12:06:18.929Z,337.50
2018-06-23T12:07:18.924Z,365.63
2018-06-23T12:08:18.920Z,393.75
2018-06-23T12:09:18.915Z,410.63
2018-06-23T12:10:18.914Z,410.63
2018-06-23T12:11:18.951Z,405.00
2018-06-23T12:12:18.906Z,393.75
2018-06-23T12:13:18.897Z,405.00
2018-06-23T12:14:18.898Z,472.50
2018-06-23T12:15:18.886Z,517.50
2018-06-23T12:16:18.881Z,545.63
2018-06-23T12:17:18.877Z,635.63
2018-06-23T12:18:18.877Z,815.63
2018-06-23T12:19:18.867Z,849.38
2018-06-23T12:20:18.863Z,877.50
2018-06-23T12:21:18.860Z,810.00
2018-06-23T12:22:18.853Z,736.88
2018-06-23T12:23:18.849Z,658.13
2018-06-23T12:24:18.848Z,579.38
2018-06-23T12:25:18.885Z,511.88
2018-06-23T12:26:19.039Z,489.38
2018-06-23T12:27:18.837Z,495.00
2018-06-23T12:28:18.834Z,517.50
2018-06-23T12:29:18.837Z,517.50
2018-06-23T12:30:18.846Z,466.88
2018-06-23T12:31:18.819Z,421.88
2018-06-23T12:32:18.817Z,388.13
2018-06-23T12:33:18.809Z,416.25
2018-06-23T12:34:18.809Z,433.13
2018-06-23T12:35:18.800Z,427.50
2018-06-23T12:36:18.797Z,410.63
2018-06-23T12:37:18.792Z,393.75
2018-06-23T12:38:18.787Z,393.75
2018-06-23T12:39:18.782Z,393.75
2018-06-23T12:40:18.778Z,388.13
2018-06-23T12:41:18.774Z,399.38
2018-06-23T12:42:18.769Z,410.63
2018-06-23T12:43:18.971Z,444.38
2018-06-23T12:44:18.764Z,506.25
2018-06-23T12:45:18.756Z,540.00
2018-06-23T12:46:18.753Z,562.50